sensor_id;sensor_type;location;lat;lon;timestamp;temperature;humidity
20771;DHT22;10545;36.536;23.064;2023-10-19T00:01:22;20.00;99.90
20771;DHT22;10545;36.536;23.064;2023-10-19T00:03:54;20.00;99.90
20771;DHT22;10545;36.536;23.064;2023-10-19T00:06:22;19.90;99.90
20771;DHT22;10545;36.536;23.064;2023-10-19T00:08:49;19.90;99.90
20771;DHT22;10545;36.536;23.064;2023-10-19T00:11:18;19.90;99.90
20771;DHT22;10545;36.536;23.064;2023-10-19T00:13:48;19.90;99.90
20771;DHT22;10545;36.536;23.064;2023-10-19T00:16:20;19.90;99.90
20771;DHT22;10545;36.536;23.064;2023-10-19T00:18:51;19.90;99.90
20771;DHT22;10545;36.536;23.064;2023-10-19T00:21:19;19.90;99.90
20771;DHT22;10545;36.536;23.064;2023-10-19T00:23:47;19.80;99.90
20771;DHT22;10545;36.536;23.064;2023-10-19T00:26:13;19.80;99.90
20771;DHT22;10545;36.536;23.064;2023-10-19T00:28:49;19.80;99.90
20771;DHT22;10545;36.536;23.064;2023-10-19T00:31:25;19.80;99.90
20771;DHT22;10545;36.536;23.064;2023-10-19T00:33:54;19.80;99.90
20771;DHT22;10545;36.536;23.064;2023-10-19T00:36:21;19.80;99.90
20771;DHT22;10545;36.536;23.064;2023-10-19T00:38:48;19.80;99.90
20771;DHT22;10545;36.536;23.064;2023-10-19T00:41:15;19.80;99.90
20771;DHT22;10545;36.536;23.064;2023-10-19T00:43:50;19.80;99.90
20771;DHT22;10545;36.536;23.064;2023-10-19T00:46:23;19.80;99.90
20771;DHT22;10545;36.536;23.064;2023-10-19T00:49:00;19.80;99.90
20771;DHT22;10545;36.536;23.064;2023-10-19T00:51:35;19.80;99.90
20771;DHT22;10545;36.536;23.064;2023-10-19T00:54:10;19.80;99.90
20771;DHT22;10545;36.536;23.064;2023-10-19T00:56:46;19.80;99.90
20771;DHT22;10545;36.536;23.064;2023-10-19T00:59:19;19.80;99.90
20771;DHT22;10545;36.536;23.064;2023-10-19T02:03:11;19.70;99.90
20771;DHT22;10545;36.536;23.064;2023-10-19T02:05:37;19.70;99.90
20771;DHT22;10545;36.536;23.064;2023-10-19T02:08:07;19.60;99.90
20771;DHT22;10545;36.536;23.064;2023-10-19T02:10:34;19.60;99.90
20771;DHT22;10545;36.536;23.064;2023-10-19T02:13:01;19.70;99.90
20771;DHT22;10545;36.536;23.064;2023-10-19T02:15:33;19.60;99.90
20771;DHT22;10545;36.536;23.064;2023-10-19T02:18:03;19.60;99.90
20771;DHT22;10545;36.536;23.064;2023-10-19T02:20:30;19.70;99.90
20771;DHT22;10545;36.536;23.064;2023-10-19T02:22:57;19.60;99.90
20771;DHT22;10545;36.536;23.064;2023-10-19T02:25:24;19.60;99.90
20771;DHT22;10545;36.536;23.064;2023-10-19T02:28:00;19.70;99.90
20771;DHT22;10545;36.536;23.064;2023-10-19T02:30:26;19.60;99.90
20771;DHT22;10545;36.536;23.064;2023-10-19T02:32:52;19.70;99.90
20771;DHT22;10545;36.536;23.064;2023-10-19T02:35:19;19.60;99.90
20771;DHT22;10545;36.536;23.064;2023-10-19T02:37:45;19.60;99.90
20771;DHT22;10545;36.536;23.064;2023-10-19T02:40:11;19.60;99.90
20771;DHT22;10545;36.536;23.064;2023-10-19T02:42:46;19.60;99.90
20771;DHT22;10545;36.536;23.064;2023-10-19T02:45:19;19.60;99.90
20771;DHT22;10545;36.536;23.064;2023-10-19T02:47:46;19.70;99.90
20771;DHT22;10545;36.536;23.064;2023-10-19T02:50:12;19.70;99.90
20771;DHT22;10545;36.536;23.064;2023-10-19T02:52:49;19.70;99.90
20771;DHT22;10545;36.536;23.064;2023-10-19T02:55:15;19.70;99.90
20771;DHT22;10545;36.536;23.064;2023-10-19T02:57:45;19.70;99.90
20771;DHT22;10545;36.536;23.064;2023-10-19T03:00:13;19.80;99.90
20771;DHT22;10545;36.536;23.064;2023-10-19T03:02:40;19.80;99.90
20771;DHT22;10545;36.536;23.064;2023-10-19T03:05:07;19.80;99.90
20771;DHT22;10545;36.536;23.064;2023-10-19T03:07:42;19.70;99.90
20771;DHT22;10545;36.536;23.064;2023-10-19T03:10:11;19.80;99.90
20771;DHT22;10545;36.536;23.064;2023-10-19T03:13:01;19.80;99.90
20771;DHT22;10545;36.536;23.064;2023-10-19T03:15:30;19.80;99.90
20771;DHT22;10545;36.536;23.064;2023-10-19T03:17:58;19.80;99.90
20771;DHT22;10545;36.536;23.064;2023-10-19T03:20:29;19.80;99.90
20771;DHT22;10545;36.536;23.064;2023-10-19T03:22:59;19.80;99.90
20771;DHT22;10545;36.536;23.064;2023-10-19T03:25:28;19.80;99.90
20771;DHT22;10545;36.536;23.064;2023-10-19T03:28:12;19.80;99.90
20771;DHT22;10545;36.536;23.064;2023-10-19T03:30:38;19.80;99.90
20771;DHT22;10545;36.536;23.064;2023-10-19T03:33:06;19.80;99.90
20771;DHT22;10545;36.536;23.064;2023-10-19T03:35:38;19.80;99.90
20771;DHT22;10545;36.536;23.064;2023-10-19T03:38:08;19.80;99.90
20771;DHT22;10545;36.536;23.064;2023-10-19T03:40:42;19.80;99.90
20771;DHT22;10545;36.536;23.064;2023-10-19T03:43:18;19.80;99.90
20771;DHT22;10545;36.536;23.064;2023-10-19T03:45:47;19.80;99.90
20771;DHT22;10545;36.536;23.064;2023-10-19T03:48:19;19.80;99.90
20771;DHT22;10545;36.536;23.064;2023-10-19T03:50:53;19.80;99.90
20771;DHT22;10545;36.536;23.064;2023-10-19T03:53:23;19.80;99.90
20771;DHT22;10545;36.536;23.064;2023-10-19T03:55:49;19.80;99.90
20771;DHT22;10545;36.536;23.064;2023-10-19T03:58:17;19.80;99.90
20771;DHT22;10545;36.536;23.064;2023-10-19T04:00:47;19.80;99.90
20771;DHT22;10545;36.536;23.064;2023-10-19T04:03:16;19.70;99.90
20771;DHT22;10545;36.536;23.064;2023-10-19T04:05:51;19.70;99.90
20771;DHT22;10545;36.536;23.064;2023-10-19T04:08:17;19.70;99.90
20771;DHT22;10545;36.536;23.064;2023-10-19T04:10:47;19.70;99.90
20771;DHT22;10545;36.536;23.064;2023-10-19T04:13:31;19.70;99.90
20771;DHT22;10545;36.536;23.064;2023-10-19T04:15:57;19.70;99.90
20771;DHT22;10545;36.536;23.064;2023-10-19T04:18:23;19.70;99.90
20771;DHT22;10545;36.536;23.064;2023-10-19T04:20:51;19.70;99.90
20771;DHT22;10545;36.536;23.064;2023-10-19T04:23:21;19.70;99.90
20771;DHT22;10545;36.536;23.064;2023-10-19T04:25:48;19.70;99.90
20771;DHT22;10545;36.536;23.064;2023-10-19T04:28:14;19.70;99.90
20771;DHT22;10545;36.536;23.064;2023-10-19T04:30:40;19.60;99.90
20771;DHT22;10545;36.536;23.064;2023-10-19T04:33:07;19.60;99.90
20771;DHT22;10545;36.536;23.064;2023-10-19T04:35:38;19.60;99.90
20771;DHT22;10545;36.536;23.064;2023-10-19T04:38:07;19.60;99.90
20771;DHT22;10545;36.536;23.064;2023-10-19T04:40:33;19.60;99.90
20771;DHT22;10545;36.536;23.064;2023-10-19T04:43:02;19.60;99.90
20771;DHT22;10545;36.536;23.064;2023-10-19T04:45:31;19.60;99.90
20771;DHT22;10545;36.536;23.064;2023-10-19T04:47:57;19.70;99.90
20771;DHT22;10545;36.536;23.064;2023-10-19T04:50:23;19.70;99.90
20771;DHT22;10545;36.536;23.064;2023-10-19T04:52:49;19.70;99.90
20771;DHT22;10545;36.536;23.064;2023-10-19T04:55:16;19.70;99.90
20771;DHT22;10545;36.536;23.064;2023-10-19T04:57:42;19.70;99.90
20771;DHT22;10545;36.536;23.064;2023-10-19T05:00:08;19.70;99.90
20771;DHT22;10545;36.536;23.064;2023-10-19T05:02:39;19.70;99.90
20771;DHT22;10545;36.536;23.064;2023-10-19T05:05:05;19.70;99.90
20771;DHT22;10545;36.536;23.064;2023-10-19T05:07:32;19.70;99.90
20771;DHT22;10545;36.536;23.064;2023-10-19T05:09:59;19.70;99.90
20771;DHT22;10545;36.536;23.064;2023-10-19T05:12:25;19.70;99.90
20771;DHT22;10545;36.536;23.064;2023-10-19T05:14:51;19.70;99.90
20771;DHT22;10545;36.536;23.064;2023-10-19T05:17:17;19.70;99.90
20771;DHT22;10545;36.536;23.064;2023-10-19T05:19:46;19.70;99.90
20771;DHT22;10545;36.536;23.064;2023-10-19T05:22:13;19.70;99.90
20771;DHT22;10545;36.536;23.064;2023-10-19T05:24:39;19.70;99.90
20771;DHT22;10545;36.536;23.064;2023-10-19T05:27:05;19.70;99.90
20771;DHT22;10545;36.536;23.064;2023-10-19T05:29:34;19.80;99.90
20771;DHT22;10545;36.536;23.064;2023-10-19T05:32:00;19.80;99.90
20771;DHT22;10545;36.536;23.064;2023-10-19T05:34:26;19.80;99.90
20771;DHT22;10545;36.536;23.064;2023-10-19T05:36:57;19.80;99.90
20771;DHT22;10545;36.536;23.064;2023-10-19T05:39:25;19.80;99.90
20771;DHT22;10545;36.536;23.064;2023-10-19T05:41:57;19.80;99.90
20771;DHT22;10545;36.536;23.064;2023-10-19T05:44:28;19.90;99.90
20771;DHT22;10545;36.536;23.064;2023-10-19T05:46:56;19.90;99.90
20771;DHT22;10545;36.536;23.064;2023-10-19T05:49:24;19.90;99.90
20771;DHT22;10545;36.536;23.064;2023-10-19T05:51:50;19.90;99.90
20771;DHT22;10545;36.536;23.064;2023-10-19T05:54:16;19.90;99.90
20771;DHT22;10545;36.536;23.064;2023-10-19T05:56:43;19.90;99.90
20771;DHT22;10545;36.536;23.064;2023-10-19T05:59:09;20.00;99.90
20771;DHT22;10545;36.536;23.064;2023-10-19T06:01:36;20.10;99.90
20771;DHT22;10545;36.536;23.064;2023-10-19T06:04:07;20.20;99.90
20771;DHT22;10545;36.536;23.064;2023-10-19T06:06:33;20.40;99.90
20771;DHT22;10545;36.536;23.064;2023-10-19T06:08:59;20.50;99.90
20771;DHT22;10545;36.536;23.064;2023-10-19T06:11:29;20.60;99.90
20771;DHT22;10545;36.536;23.064;2023-10-19T06:13:58;20.80;99.90
20771;DHT22;10545;36.536;23.064;2023-10-19T06:16:25;20.90;99.90
20771;DHT22;10545;36.536;23.064;2023-10-19T06:18:51;21.10;99.90
20771;DHT22;10545;36.536;23.064;2023-10-19T06:21:18;21.20;99.90
20771;DHT22;10545;36.536;23.064;2023-10-19T06:23:45;21.30;99.90
20771;DHT22;10545;36.536;23.064;2023-10-19T06:26:11;21.50;99.90
20771;DHT22;10545;36.536;23.064;2023-10-19T06:28:39;21.60;99.90
20771;DHT22;10545;36.536;23.064;2023-10-19T06:31:06;21.80;99.90
20771;DHT22;10545;36.536;23.064;2023-10-19T06:33:32;21.90;99.90
20771;DHT22;10545;36.536;23.064;2023-10-19T06:35:59;22.10;99.90
20771;DHT22;10545;36.536;23.064;2023-10-19T06:38:29;22.20;99.90
20771;DHT22;10545;36.536;23.064;2023-10-19T06:40:57;22.30;99.90
20771;DHT22;10545;36.536;23.064;2023-10-19T06:43:24;22.50;99.90
20771;DHT22;10545;36.536;23.064;2023-10-19T06:45:55;22.70;99.90
20771;DHT22;10545;36.536;23.064;2023-10-19T06:48:21;22.90;99.90
20771;DHT22;10545;36.536;23.064;2023-10-19T06:50:48;23.00;99.90
20771;DHT22;10545;36.536;23.064;2023-10-19T06:53:14;23.20;99.90
20771;DHT22;10545;36.536;23.064;2023-10-19T06:55:40;23.30;99.90
20771;DHT22;10545;36.536;23.064;2023-10-19T06:58:06;23.40;99.90
20771;DHT22;10545;36.536;23.064;2023-10-19T07:00:33;23.50;99.90
20771;DHT22;10545;36.536;23.064;2023-10-19T07:03:00;23.70;99.90
20771;DHT22;10545;36.536;23.064;2023-10-19T07:05:26;23.80;99.90
20771;DHT22;10545;36.536;23.064;2023-10-19T07:07:56;24.00;99.90
20771;DHT22;10545;36.536;23.064;2023-10-19T07:10:23;24.10;99.90
20771;DHT22;10545;36.536;23.064;2023-10-19T07:12:54;24.30;99.90
20771;DHT22;10545;36.536;23.064;2023-10-19T07:15:22;24.50;99.90
20771;DHT22;10545;36.536;23.064;2023-10-19T07:17:50;24.70;99.90
20771;DHT22;10545;36.536;23.064;2023-10-19T07:20:20;24.90;99.90
20771;DHT22;10545;36.536;23.064;2023-10-19T07:22:59;25.10;99.90
20771;DHT22;10545;36.536;23.064;2023-10-19T07:25:29;25.30;99.90
20771;DHT22;10545;36.536;23.064;2023-10-19T07:27:57;25.40;99.90
20771;DHT22;10545;36.536;23.064;2023-10-19T07:30:25;25.60;99.90
20771;DHT22;10545;36.536;23.064;2023-10-19T07:32:56;25.70;99.90
20771;DHT22;10545;36.536;23.064;2023-10-19T07:35:28;25.70;99.90
20771;DHT22;10545;36.536;23.064;2023-10-19T07:37:57;25.60;99.90
20771;DHT22;10545;36.536;23.064;2023-10-19T07:40:23;25.50;99.90
20771;DHT22;10545;36.536;23.064;2023-10-19T07:42:50;25.40;99.90
20771;DHT22;10545;36.536;23.064;2023-10-19T07:45:19;25.50;99.90
20771;DHT22;10545;36.536;23.064;2023-10-19T07:47:45;25.50;99.90
20771;DHT22;10545;36.536;23.064;2023-10-19T07:50:13;25.40;99.90
20771;DHT22;10545;36.536;23.064;2023-10-19T07:52:43;25.40;99.90
20771;DHT22;10545;36.536;23.064;2023-10-19T07:55:10;25.50;99.90
20771;DHT22;10545;36.536;23.064;2023-10-19T07:57:36;25.70;99.90
20771;DHT22;10545;36.536;23.064;2023-10-19T08:00:03;26.00;99.90
20771;DHT22;10545;36.536;23.064;2023-10-19T08:02:30;26.10;99.90
20771;DHT22;10545;36.536;23.064;2023-10-19T08:04:56;26.20;99.90
20771;DHT22;10545;36.536;23.064;2023-10-19T08:07:22;26.40;99.90
20771;DHT22;10545;36.536;23.064;2023-10-19T08:09:48;26.40;99.90
20771;DHT22;10545;36.536;23.064;2023-10-19T08:12:15;26.60;99.90
20771;DHT22;10545;36.536;23.064;2023-10-19T08:14:42;26.70;99.90
20771;DHT22;10545;36.536;23.064;2023-10-19T08:17:09;26.80;99.90
20771;DHT22;10545;36.536;23.064;2023-10-19T08:19:35;26.90;99.90
20771;DHT22;10545;36.536;23.064;2023-10-19T08:22:01;27.00;99.90
20771;DHT22;10545;36.536;23.064;2023-10-19T08:24:28;26.90;99.90
20771;DHT22;10545;36.536;23.064;2023-10-19T08:26:56;26.90;99.90
20771;DHT22;10545;36.536;23.064;2023-10-19T08:29:23;27.00;99.90
20771;DHT22;10545;36.536;23.064;2023-10-19T08:31:49;27.00;99.90
20771;DHT22;10545;36.536;23.064;2023-10-19T08:34:16;27.00;99.90
20771;DHT22;10545;36.536;23.064;2023-10-19T08:36:43;26.90;99.90
20771;DHT22;10545;36.536;23.064;2023-10-19T08:39:10;26.80;99.90
20771;DHT22;10545;36.536;23.064;2023-10-19T08:41:39;26.80;99.90
20771;DHT22;10545;36.536;23.064;2023-10-19T08:44:07;26.90;99.90
20771;DHT22;10545;36.536;23.064;2023-10-19T08:46:44;27.00;99.90
20771;DHT22;10545;36.536;23.064;2023-10-19T08:49:15;27.00;99.90
20771;DHT22;10545;36.536;23.064;2023-10-19T08:51:46;27.10;99.90
20771;DHT22;10545;36.536;23.064;2023-10-19T08:54:14;27.10;99.90
20771;DHT22;10545;36.536;23.064;2023-10-19T08:56:41;27.10;99.90
20771;DHT22;10545;36.536;23.064;2023-10-19T08:59:08;27.10;99.90
20771;DHT22;10545;36.536;23.064;2023-10-19T09:01:38;27.10;99.90
20771;DHT22;10545;36.536;23.064;2023-10-19T09:04:04;27.20;99.90
20771;DHT22;10545;36.536;23.064;2023-10-19T09:06:37;27.30;99.90
20771;DHT22;10545;36.536;23.064;2023-10-19T09:09:11;27.50;99.90
20771;DHT22;10545;36.536;23.064;2023-10-19T09:11:52;27.30;99.90
20771;DHT22;10545;36.536;23.064;2023-10-19T09:14:34;27.20;99.90
20771;DHT22;10545;36.536;23.064;2023-10-19T09:17:09;26.60;99.90
20771;DHT22;10545;36.536;23.064;2023-10-19T09:19:41;26.20;99.90
20771;DHT22;10545;36.536;23.064;2023-10-19T09:22:09;26.10;99.90
20771;DHT22;10545;36.536;23.064;2023-10-19T09:24:45;26.30;99.90
20771;DHT22;10545;36.536;23.064;2023-10-19T09:27:12;26.50;99.90
20771;DHT22;10545;36.536;23.064;2023-10-19T09:29:39;26.70;99.90
20771;DHT22;10545;36.536;23.064;2023-10-19T09:32:08;26.90;99.90
20771;DHT22;10545;36.536;23.064;2023-10-19T09:34:35;27.00;99.90
20771;DHT22;10545;36.536;23.064;2023-10-19T09:37:02;27.10;99.90
20771;DHT22;10545;36.536;23.064;2023-10-19T09:39:32;27.00;99.90
20771;DHT22;10545;36.536;23.064;2023-10-19T09:42:08;27.10;99.90
20771;DHT22;10545;36.536;23.064;2023-10-19T09:44:43;27.20;99.90
20771;DHT22;10545;36.536;23.064;2023-10-19T09:47:16;27.30;99.90
20771;DHT22;10545;36.536;23.064;2023-10-19T09:49:45;27.40;99.90
20771;DHT22;10545;36.536;23.064;2023-10-19T09:52:12;27.50;99.90
20771;DHT22;10545;36.536;23.064;2023-10-19T09:57:18;27.80;99.90
20771;DHT22;10545;36.536;23.064;2023-10-19T09:59:54;27.90;99.90
20771;DHT22;10545;36.536;23.064;2023-10-19T10:02:24;28.00;99.90
20771;DHT22;10545;36.536;23.064;2023-10-19T10:04:53;27.90;99.90
20771;DHT22;10545;36.536;23.064;2023-10-19T10:07:19;27.90;99.90
20771;DHT22;10545;36.536;23.064;2023-10-19T10:09:48;27.80;99.90
20771;DHT22;10545;36.536;23.064;2023-10-19T10:12:19;27.80;99.90
20771;DHT22;10545;36.536;23.064;2023-10-19T10:15:01;27.70;99.90
20771;DHT22;10545;36.536;23.064;2023-10-19T10:17:29;28.00;99.90
20771;DHT22;10545;36.536;23.064;2023-10-19T10:22:40;28.10;99.90
20771;DHT22;10545;36.536;23.064;2023-10-19T10:25:29;27.90;99.90
20771;DHT22;10545;36.536;23.064;2023-10-19T10:27:56;27.60;99.90
20771;DHT22;10545;36.536;23.064;2023-10-19T10:30:23;27.20;99.90
20771;DHT22;10545;36.536;23.064;2023-10-19T10:32:53;27.00;99.90
20771;DHT22;10545;36.536;23.064;2023-10-19T10:38:10;27.10;99.90
20771;DHT22;10545;36.536;23.064;2023-10-19T10:40:50;27.20;99.90
20771;DHT22;10545;36.536;23.064;2023-10-19T10:43:19;27.30;99.90
20771;DHT22;10545;36.536;23.064;2023-10-19T10:45:45;27.40;99.90
20771;DHT22;10545;36.536;23.064;2023-10-19T10:48:18;27.30;99.90
20771;DHT22;10545;36.536;23.064;2023-10-19T10:50:44;27.20;99.90
20771;DHT22;10545;36.536;23.064;2023-10-19T10:53:13;27.00;99.90
20771;DHT22;10545;36.536;23.064;2023-10-19T10:55:43;26.90;99.90
20771;DHT22;10545;36.536;23.064;2023-10-19T10:58:16;26.80;99.90
20771;DHT22;10545;36.536;23.064;2023-10-19T11:00:43;26.70;99.90
20771;DHT22;10545;36.536;23.064;2023-10-19T11:03:11;26.60;99.90
20771;DHT22;10545;36.536;23.064;2023-10-19T11:05:38;26.50;99.90
20771;DHT22;10545;36.536;23.064;2023-10-19T11:08:09;26.40;99.90
20771;DHT22;10545;36.536;23.064;2023-10-19T11:10:47;26.10;99.90
20771;DHT22;10545;36.536;23.064;2023-10-19T11:13:16;25.80;99.90
20771;DHT22;10545;36.536;23.064;2023-10-19T11:15:51;25.70;99.90
20771;DHT22;10545;36.536;23.064;2023-10-19T11:18:33;25.70;99.90
20771;DHT22;10545;36.536;23.064;2023-10-19T11:21:13;25.80;99.90
20771;DHT22;10545;36.536;23.064;2023-10-19T11:23:48;25.80;99.90
20771;DHT22;10545;36.536;23.064;2023-10-19T11:26:23;25.80;99.90
20771;DHT22;10545;36.536;23.064;2023-10-19T11:29:03;26.00;99.90
20771;DHT22;10545;36.536;23.064;2023-10-19T11:31:35;26.00;99.90
20771;DHT22;10545;36.536;23.064;2023-10-19T11:34:05;26.20;99.90
20771;DHT22;10545;36.536;23.064;2023-10-19T11:36:33;26.50;99.90
20771;DHT22;10545;36.536;23.064;2023-10-19T11:39:00;26.80;99.90
20771;DHT22;10545;36.536;23.064;2023-10-19T11:41:26;26.80;99.90
20771;DHT22;10545;36.536;23.064;2023-10-19T11:43:52;26.70;99.90
20771;DHT22;10545;36.536;23.064;2023-10-19T11:46:18;26.70;99.90
20771;DHT22;10545;36.536;23.064;2023-10-19T11:48:44;26.70;99.90
20771;DHT22;10545;36.536;23.064;2023-10-19T11:51:11;26.70;99.90
20771;DHT22;10545;36.536;23.064;2023-10-19T11:53:38;26.60;99.90
20771;DHT22;10545;36.536;23.064;2023-10-19T11:56:06;26.70;99.90
20771;DHT22;10545;36.536;23.064;2023-10-19T11:58:33;26.70;99.90
20771;DHT22;10545;36.536;23.064;2023-10-19T12:01:10;26.70;99.90
20771;DHT22;10545;36.536;23.064;2023-10-19T12:03:42;26.70;99.90
20771;DHT22;10545;36.536;23.064;2023-10-19T12:06:12;26.70;99.90
20771;DHT22;10545;36.536;23.064;2023-10-19T12:08:45;26.80;99.90
20771;DHT22;10545;36.536;23.064;2023-10-19T12:11:12;27.10;99.90
20771;DHT22;10545;36.536;23.064;2023-10-19T12:13:46;27.00;99.90
20771;DHT22;10545;36.536;23.064;2023-10-19T12:16:13;26.90;99.90
20771;DHT22;10545;36.536;23.064;2023-10-19T12:18:41;26.90;99.90
20771;DHT22;10545;36.536;23.064;2023-10-19T12:21:08;26.80;99.90
20771;DHT22;10545;36.536;23.064;2023-10-19T12:23:44;26.90;99.90
20771;DHT22;10545;36.536;23.064;2023-10-19T12:26:11;27.10;99.90
20771;DHT22;10545;36.536;23.064;2023-10-19T12:28:38;27.10;99.90
20771;DHT22;10545;36.536;23.064;2023-10-19T12:31:04;27.20;99.90
20771;DHT22;10545;36.536;23.064;2023-10-19T12:33:39;27.10;99.90
20771;DHT22;10545;36.536;23.064;2023-10-19T12:36:07;27.10;99.90
20771;DHT22;10545;36.536;23.064;2023-10-19T12:38:54;27.20;99.90
20771;DHT22;10545;36.536;23.064;2023-10-19T12:41:21;27.30;99.90
20771;DHT22;10545;36.536;23.064;2023-10-19T12:43:47;27.20;99.90
20771;DHT22;10545;36.536;23.064;2023-10-19T12:46:18;27.20;99.90
20771;DHT22;10545;36.536;23.064;2023-10-19T12:48:45;27.00;99.90
20771;DHT22;10545;36.536;23.064;2023-10-19T12:51:14;26.80;99.90
20771;DHT22;10545;36.536;23.064;2023-10-19T12:53:41;26.60;99.90
20771;DHT22;10545;36.536;23.064;2023-10-19T12:56:07;26.70;99.90
20771;DHT22;10545;36.536;23.064;2023-10-19T12:58:37;26.70;99.90
20771;DHT22;10545;36.536;23.064;2023-10-19T13:01:04;26.60;99.90
20771;DHT22;10545;36.536;23.064;2023-10-19T13:03:31;26.50;99.90
20771;DHT22;10545;36.536;23.064;2023-10-19T13:05:58;26.60;99.90
20771;DHT22;10545;36.536;23.064;2023-10-19T13:08:24;26.80;99.90
20771;DHT22;10545;36.536;23.064;2023-10-19T13:10:53;27.10;99.90
20771;DHT22;10545;36.536;23.064;2023-10-19T13:13:20;27.40;99.90
20771;DHT22;10545;36.536;23.064;2023-10-19T13:15:49;27.70;99.90
20771;DHT22;10545;36.536;23.064;2023-10-19T13:18:16;28.00;99.90
20771;DHT22;10545;36.536;23.064;2023-10-19T13:20:54;28.00;99.90
20771;DHT22;10545;36.536;23.064;2023-10-19T13:23:22;28.20;99.90
20771;DHT22;10545;36.536;23.064;2023-10-19T13:25:49;28.30;99.90
20771;DHT22;10545;36.536;23.064;2023-10-19T13:28:17;28.40;99.90
20771;DHT22;10545;36.536;23.064;2023-10-19T13:30:47;28.50;99.90
20771;DHT22;10545;36.536;23.064;2023-10-19T13:33:14;28.30;99.90
20771;DHT22;10545;36.536;23.064;2023-10-19T13:35:44;27.90;99.90
20771;DHT22;10545;36.536;23.064;2023-10-19T13:38:11;27.90;99.90
20771;DHT22;10545;36.536;23.064;2023-10-19T13:40:40;27.80;99.90
20771;DHT22;10545;36.536;23.064;2023-10-19T13:43:08;27.50;99.90
20771;DHT22;10545;36.536;23.064;2023-10-19T13:45:36;27.30;99.90
20771;DHT22;10545;36.536;23.064;2023-10-19T13:48:03;27.00;99.90
20771;DHT22;10545;36.536;23.064;2023-10-19T13:50:31;26.80;99.90
20771;DHT22;10545;36.536;23.064;2023-10-19T13:52:58;26.60;99.90
20771;DHT22;10545;36.536;23.064;2023-10-19T13:55:27;26.50;99.90
20771;DHT22;10545;36.536;23.064;2023-10-19T13:57:54;26.50;99.90
20771;DHT22;10545;36.536;23.064;2023-10-19T14:00:22;26.50;99.90
20771;DHT22;10545;36.536;23.064;2023-10-19T14:02:58;26.50;99.90
20771;DHT22;10545;36.536;23.064;2023-10-19T14:05:25;26.70;99.90
20771;DHT22;10545;36.536;23.064;2023-10-19T14:07:51;26.90;99.90
20771;DHT22;10545;36.536;23.064;2023-10-19T14:10:18;26.70;99.90
20771;DHT22;10545;36.536;23.064;2023-10-19T14:12:48;26.60;99.90
20771;DHT22;10545;36.536;23.064;2023-10-19T14:15:20;26.60;99.90
20771;DHT22;10545;36.536;23.064;2023-10-19T14:17:48;26.60;99.90
20771;DHT22;10545;36.536;23.064;2023-10-19T14:20:15;26.50;99.90
20771;DHT22;10545;36.536;23.064;2023-10-19T14:22:45;26.40;99.90
20771;DHT22;10545;36.536;23.064;2023-10-19T14:25:12;26.30;99.90
20771;DHT22;10545;36.536;23.064;2023-10-19T14:27:49;26.00;99.90
20771;DHT22;10545;36.536;23.064;2023-10-19T14:30:18;25.90;99.90
20771;DHT22;10545;36.536;23.064;2023-10-19T14:32:48;25.80;99.90
20771;DHT22;10545;36.536;23.064;2023-10-19T14:35:18;25.70;99.90
20771;DHT22;10545;36.536;23.064;2023-10-19T14:37:50;25.80;99.90
20771;DHT22;10545;36.536;23.064;2023-10-19T14:40:19;25.70;99.90
20771;DHT22;10545;36.536;23.064;2023-10-19T14:42:51;25.60;99.90
20771;DHT22;10545;36.536;23.064;2023-10-19T14:45:24;25.60;99.90
20771;DHT22;10545;36.536;23.064;2023-10-19T14:47:59;25.60;99.90
20771;DHT22;10545;36.536;23.064;2023-10-19T14:50:25;25.60;99.90
20771;DHT22;10545;36.536;23.064;2023-10-19T14:52:53;25.60;99.90
20771;DHT22;10545;36.536;23.064;2023-10-19T14:55:21;25.50;99.90
20771;DHT22;10545;36.536;23.064;2023-10-19T14:57:50;25.40;99.90
20771;DHT22;10545;36.536;23.064;2023-10-19T15:00:25;25.30;99.90
20771;DHT22;10545;36.536;23.064;2023-10-19T15:03:02;25.20;99.90
20771;DHT22;10545;36.536;23.064;2023-10-19T15:05:36;25.10;99.90
20771;DHT22;10545;36.536;23.064;2023-10-19T15:08:04;25.10;99.90
20771;DHT22;10545;36.536;23.064;2023-10-19T15:10:34;25.10;99.90
20771;DHT22;10545;36.536;23.064;2023-10-19T15:13:02;25.10;99.90
20771;DHT22;10545;36.536;23.064;2023-10-19T15:15:29;25.20;99.90
20771;DHT22;10545;36.536;23.064;2023-10-19T15:17:56;25.20;99.90
20771;DHT22;10545;36.536;23.064;2023-10-19T15:20:25;25.20;99.90
20771;DHT22;10545;36.536;23.064;2023-10-19T15:22:52;25.10;99.90
20771;DHT22;10545;36.536;23.064;2023-10-19T15:25:22;25.00;99.90
20771;DHT22;10545;36.536;23.064;2023-10-19T15:27:52;25.00;99.90
20771;DHT22;10545;36.536;23.064;2023-10-19T15:30:19;25.00;99.90
20771;DHT22;10545;36.536;23.064;2023-10-19T15:32:50;25.10;99.90
20771;DHT22;10545;36.536;23.064;2023-10-19T15:35:17;25.20;99.90
20771;DHT22;10545;36.536;23.064;2023-10-19T15:37:48;25.30;99.90
20771;DHT22;10545;36.536;23.064;2023-10-19T15:40:15;25.30;99.90
20771;DHT22;10545;36.536;23.064;2023-10-19T15:42:42;25.40;99.90
20771;DHT22;10545;36.536;23.064;2023-10-19T15:45:10;25.40;99.90
20771;DHT22;10545;36.536;23.064;2023-10-19T15:47:40;25.40;99.90
20771;DHT22;10545;36.536;23.064;2023-10-19T15:50:07;25.40;99.90
20771;DHT22;10545;36.536;23.064;2023-10-19T15:52:34;25.40;99.90
20771;DHT22;10545;36.536;23.064;2023-10-19T15:55:02;25.40;99.90
20771;DHT22;10545;36.536;23.064;2023-10-19T15:57:28;25.40;99.90
20771;DHT22;10545;36.536;23.064;2023-10-19T15:59:56;25.40;99.90
20771;DHT22;10545;36.536;23.064;2023-10-19T16:02:22;25.40;99.90
20771;DHT22;10545;36.536;23.064;2023-10-19T16:04:48;25.30;99.90
20771;DHT22;10545;36.536;23.064;2023-10-19T16:07:15;25.30;99.90
20771;DHT22;10545;36.536;23.064;2023-10-19T16:09:43;25.30;99.90
20771;DHT22;10545;36.536;23.064;2023-10-19T16:12:10;25.20;99.90
20771;DHT22;10545;36.536;23.064;2023-10-19T16:14:38;25.20;99.90
20771;DHT22;10545;36.536;23.064;2023-10-19T16:17:06;25.10;99.90
20771;DHT22;10545;36.536;23.064;2023-10-19T16:19:35;25.00;99.90
20771;DHT22;10545;36.536;23.064;2023-10-19T16:22:01;25.00;99.90
20771;DHT22;10545;36.536;23.064;2023-10-19T16:24:28;24.90;99.90
20771;DHT22;10545;36.536;23.064;2023-10-19T16:26:55;24.80;99.90
20771;DHT22;10545;36.536;23.064;2023-10-19T16:29:24;24.80;99.90
20771;DHT22;10545;36.536;23.064;2023-10-19T16:31:52;24.70;99.90
20771;DHT22;10545;36.536;23.064;2023-10-19T16:34:24;24.70;99.90
20771;DHT22;10545;36.536;23.064;2023-10-19T16:36:50;24.70;99.90